Time;durP1;ratioP1;P1;durP2;ratioP2;P2;SDS_P1;SDS_P2;PMS_P1;PMS_P2;Temp;Humidity;BMP_temperature;BMP_pressure;BME280_temperature;BME280_humidity;BME280_pressure;Samples;Min_cycle;Max_cycle;Signal;HPM_P1;HPM_P2
2022/05/08 00:02:16;;;;;;;18.80;5.03;;;;;;;;;;5092178;28;20711;-53
2022/05/08 00:04:42;;;;;;;12.43;4.57;;;;;;;;;;5092120;28;20226;-53
2022/05/08 00:07:08;;;;;;;16.30;4.77;;;;;;;;;;5092100;28;20228;-53
2022/05/08 00:09:34;;;;;;;14.27;4.50;;;;;;;;;;5091736;28;20199;-53
2022/05/08 00:12:01;;;;;;;15.97;5.57;;;;;;;;;;5092172;28;20227;-53
2022/05/08 00:14:27;;;;;;;16.90;4.83;;;;;;;;;;5092360;28;20199;-54
2022/05/08 00:16:55;;;;;;;13.33;5.50;;;;;;;;;;5092038;28;20304;-55
2022/05/08 00:19:21;;;;;;;12.50;4.40;;;;;;;;;;5091992;28;20202;-53
2022/05/08 00:21:47;;;;;;;17.57;5.20;;;;;;;;;;5092132;28;20201;-53
2022/05/08 00:24:13;;;;;;;12.93;5.40;;;;;;;;;;5091989;28;20222;-54
2022/05/08 00:26:39;;;;;;;9.47;4.23;;;;;;;;;;5095832;28;20669;-55
2022/05/08 00:29:10;;;;;;;16.73;5.50;;;;;;;;;;5095893;28;20198;-54
2022/05/08 00:31:36;;;;;;;19.50;5.00;;;;;;;;;;5095924;28;20754;-53
2022/05/08 00:34:03;;;;;;;9.90;4.10;;;;;;;;;;5095854;28;20203;-53
2022/05/08 00:36:29;;;;;;;15.73;5.07;;;;;;;;;;5095794;28;20195;-53
2022/05/08 00:38:55;;;;;;;16.17;5.30;;;;;;;;;;5095776;28;20199;-53
2022/05/08 00:41:21;;;;;;;21.60;4.70;;;;;;;;;;5095366;28;20191;-52
2022/05/08 00:43:47;;;;;;;17.30;4.70;;;;;;;;;;5095604;28;20600;-53
2022/05/08 00:46:17;;;;;;;17.33;4.67;;;;;;;;;;5095569;28;20198;-52
2022/05/08 00:48:43;;;;;;;13.33;4.07;;;;;;;;;;5095735;28;20263;-53
2022/05/08 00:51:09;;;;;;;18.13;4.70;;;;;;;;;;5095454;28;20553;-53
2022/05/08 00:53:36;;;;;;;17.50;4.83;;;;;;;;;;5095435;28;20272;-53
2022/05/08 00:56:03;;;;;;;13.53;4.90;;;;;;;;;;5095545;28;20675;-53
2022/05/08 00:58:29;;;;;;;15.17;4.23;;;;;;;;;;5095351;28;20249;-54
2022/05/08 01:00:55;;;;;;;10.23;4.43;;;;;;;;;;5095555;28;20195;-53
2022/05/08 01:03:22;;;;;;;12.70;4.50;;;;;;;;;;5095261;28;20720;-53
2022/05/08 01:05:49;;;;;;;19.03;4.70;;;;;;;;;;5095298;28;20749;-54
2022/05/08 01:08:16;;;;;;;13.60;4.53;;;;;;;;;;5095364;28;20195;-53
2022/05/08 01:10:42;;;;;;;16.50;4.83;;;;;;;;;;5095062;28;20218;-54
2022/05/08 01:13:08;;;;;;;17.10;4.93;;;;;;;;;;5095260;28;20267;-53
2022/05/08 01:15:39;;;;;;;15.30;4.73;;;;;;;;;;5094932;28;20226;-53
2022/05/08 01:18:05;;;;;;;10.57;4.43;;;;;;;;;;5095190;28;20668;-53
2022/05/08 01:20:32;;;;;;;14.43;4.57;;;;;;;;;;5095227;28;20221;-53
2022/05/08 01:23:00;;;;;;;17.93;5.13;;;;;;;;;;5095240;28;20199;-53
2022/05/08 01:25:26;;;;;;;14.30;4.50;;;;;;;;;;5095256;28;20222;-53
2022/05/08 01:27:52;;;;;;;16.33;4.60;;;;;;;;;;5095150;28;20202;-53
2022/05/08 01:30:18;;;;;;;12.73;4.80;;;;;;;;;;5095000;28;20206;-53
2022/05/08 01:32:44;;;;;;;16.80;4.93;;;;;;;;;;5095297;28;20223;-53
2022/05/08 01:35:10;;;;;;;17.57;4.70;;;;;;;;;;5095110;28;20199;-53
2022/05/08 01:37:36;;;;;;;14.90;4.57;;;;;;;;;;5093968;28;20662;-53
2022/05/08 01:40:03;;;;;;;15.33;4.53;;;;;;;;;;5094973;28;20191;-53
2022/05/08 01:42:29;;;;;;;14.70;4.73;;;;;;;;;;5094966;28;20260;-52
2022/05/08 01:44:55;;;;;;;16.33;4.53;;;;;;;;;;5094881;28;20665;-53
2022/05/08 01:50:06;;;;;;;12.23;4.57;;;;;;;;;;5094782;28;20251;-53
2022/05/08 01:52:32;;;;;;;11.77;3.77;;;;;;;;;;5094647;28;20296;-53
2022/05/08 01:54:58;;;;;;;17.47;5.33;;;;;;;;;;5094911;28;20650;-53
2022/05/08 01:57:26;;;;;;;13.33;4.63;;;;;;;;;;5094497;28;20198;-53
2022/05/08 01:59:52;;;;;;;13.53;4.40;;;;;;;;;;5094386;28;20195;-52
2022/05/08 02:02:19;;;;;;;14.97;5.13;;;;;;;;;;5094369;28;20198;-53
2022/05/08 02:04:45;;;;;;;11.63;4.70;;;;;;;;;;5094518;28;20567;-53
2022/05/08 02:07:11;;;;;;;14.13;4.83;;;;;;;;;;5094509;28;20286;-53
2022/05/08 02:09:38;;;;;;;12.80;4.10;;;;;;;;;;5093950;28;20274;-53
2022/05/08 02:12:04;;;;;;;16.73;4.70;;;;;;;;;;5093916;28;20226;-53
2022/05/08 02:14:31;;;;;;;18.73;4.90;;;;;;;;;;5094054;28;20293;-53
2022/05/08 02:16:57;;;;;;;19.67;5.07;;;;;;;;;;5094267;28;20245;-53
2022/05/08 02:19:23;;;;;;;13.30;4.50;;;;;;;;;;5094055;28;20286;-53
2022/05/08 02:21:49;;;;;;;13.60;4.50;;;;;;;;;;5094250;28;20203;-54
2022/05/08 02:24:15;;;;;;;11.33;4.50;;;;;;;;;;5093930;28;20223;-55
2022/05/08 02:26:41;;;;;;;12.50;4.50;;;;;;;;;;5093887;28;20203;-52
2022/05/08 02:29:07;;;;;;;13.07;4.67;;;;;;;;;;5093834;28;20226;-52
2022/05/08 02:31:36;;;;;;;22.00;4.80;;;;;;;;;;5093693;28;20273;-52
2022/05/08 02:34:02;;;;;;;12.37;4.17;;;;;;;;;;5093834;28;20206;-53
2022/05/08 02:36:28;;;;;;;14.13;4.40;;;;;;;;;;5093275;28;20199;-51
2022/05/08 02:38:54;;;;;;;16.23;4.80;;;;;;;;;;5093869;28;20286;-52
2022/05/08 02:41:20;;;;;;;12.47;4.53;;;;;;;;;;5093630;28;20394;-52
2022/05/08 02:43:46;;;;;;;11.57;4.47;;;;;;;;;;5093782;28;20417;-51
2022/05/08 02:46:12;;;;;;;15.63;4.70;;;;;;;;;;5093820;28;20302;-53
2022/05/08 02:48:39;;;;;;;12.17;4.50;;;;;;;;;;5093623;28;20194;-51
2022/05/08 02:51:08;;;;;;;12.77;4.77;;;;;;;;;;5093520;28;20219;-58
2022/05/08 02:53:34;;;;;;;13.93;4.57;;;;;;;;;;5093431;28;20195;-52
2022/05/08 02:58:45;;;;;;;14.40;4.07;;;;;;;;;;5093343;28;20245;-52
2022/05/08 03:01:11;;;;;;;15.97;4.67;;;;;;;;;;5093407;28;20198;-52
2022/05/08 03:03:37;;;;;;;14.03;4.53;;;;;;;;;;5093064;28;20526;-52
2022/05/08 03:06:05;;;;;;;13.10;4.43;;;;;;;;;;5093093;28;20256;-52
2022/05/08 03:08:31;;;;;;;16.07;5.03;;;;;;;;;;5092983;28;20210;-52
2022/05/08 03:13:43;;;;;;;13.40;4.40;;;;;;;;;;5093100;28;20604;-52
2022/05/08 03:16:10;;;;;;;14.63;4.37;;;;;;;;;;5092701;28;20243;-52
2022/05/08 03:18:38;;;;;;;14.83;4.80;;;;;;;;;;5092503;28;20613;-53
2022/05/08 03:21:05;;;;;;;11.97;4.60;;;;;;;;;;5092776;28;20210;-53
2022/05/08 03:23:33;;;;;;;14.63;4.40;;;;;;;;;;5092774;28;20210;-52
2022/05/08 03:25:59;;;;;;;13.50;4.83;;;;;;;;;;5092741;28;20263;-53
2022/05/08 03:28:25;;;;;;;10.63;4.23;;;;;;;;;;5092481;28;20207;-52
2022/05/08 03:30:51;;;;;;;20.60;4.67;;;;;;;;;;5092421;28;20287;-53
2022/05/08 03:33:18;;;;;;;13.57;4.30;;;;;;;;;;5092427;28;20637;-53
2022/05/08 03:35:44;;;;;;;10.33;4.57;;;;;;;;;;5092520;28;20661;-52
2022/05/08 03:38:11;;;;;;;18.70;6.17;;;;;;;;;;5091913;28;20197;-52
2022/05/08 03:40:37;;;;;;;14.17;5.13;;;;;;;;;;5092341;28;20219;-52
2022/05/08 03:43:03;;;;;;;11.77;4.33;;;;;;;;;;5092084;28;20679;-52
2022/05/08 03:45:30;;;;;;;10.23;4.20;;;;;;;;;;5092445;28;20191;-53
2022/05/08 03:47:56;;;;;;;15.40;4.53;;;;;;;;;;5092380;28;20714;-52
2022/05/08 03:50:22;;;;;;;11.93;4.70;;;;;;;;;;5092220;28;20195;-52
2022/05/08 03:52:49;;;;;;;9.83;4.80;;;;;;;;;;5092341;28;20413;-52
2022/05/08 03:55:16;;;;;;;9.60;4.33;;;;;;;;;;5092083;28;20211;-52
2022/05/08 03:57:42;;;;;;;11.27;4.63;;;;;;;;;;5092282;28;20253;-53
2022/05/08 04:00:09;;;;;;;11.97;4.43;;;;;;;;;;5092031;28;20198;-53
2022/05/08 04:02:35;;;;;;;10.17;3.97;;;;;;;;;;5092139;28;20426;-53
2022/05/08 04:05:02;;;;;;;9.90;3.80;;;;;;;;;;5092318;28;20657;-53
2022/05/08 04:07:28;;;;;;;10.60;3.90;;;;;;;;;;5092273;28;20758;-52
2022/05/08 04:09:54;;;;;;;10.57;4.83;;;;;;;;;;5092386;28;20190;-53
2022/05/08 04:12:22;;;;;;;11.13;4.37;;;;;;;;;;5091833;28;20218;-53
2022/05/08 04:14:48;;;;;;;10.60;4.80;;;;;;;;;;5092199;28;20207;-54
2022/05/08 04:17:14;;;;;;;12.93;4.70;;;;;;;;;;5091975;28;20236;-53
2022/05/08 04:19:40;;;;;;;13.80;4.97;;;;;;;;;;5091988;28;20653;-53
2022/05/08 04:24:51;;;;;;;9.77;4.00;;;;;;;;;;5092076;28;20218;-53
2022/05/08 04:27:17;;;;;;;14.50;4.57;;;;;;;;;;5092084;28;20199;-53
2022/05/08 04:29:44;;;;;;;14.00;4.70;;;;;;;;;;5092066;28;20191;-53
2022/05/08 04:32:10;;;;;;;9.77;3.87;;;;;;;;;;5092121;28;20577;-52
2022/05/08 04:34:36;;;;;;;10.77;4.27;;;;;;;;;;5092059;28;20726;-52
2022/05/08 04:37:03;;;;;;;14.00;4.63;;;;;;;;;;5092215;28;20202;-53
2022/05/08 04:39:29;;;;;;;12.67;4.33;;;;;;;;;;5092032;28;20661;-53
2022/05/08 04:41:55;;;;;;;15.07;4.43;;;;;;;;;;5091870;28;20190;-53
2022/05/08 04:44:21;;;;;;;8.60;3.90;;;;;;;;;;5091623;28;20447;-53
2022/05/08 04:46:48;;;;;;;8.70;3.63;;;;;;;;;;5091910;28;20197;-53
2022/05/08 04:49:14;;;;;;;11.30;4.57;;;;;;;;;;5091715;28;20643;-53
2022/05/08 04:51:40;;;;;;;12.20;4.33;;;;;;;;;;5091481;28;20340;-53
2022/05/08 04:54:06;;;;;;;11.67;4.73;;;;;;;;;;5091855;28;20249;-53
2022/05/08 04:56:32;;;;;;;15.67;4.87;;;;;;;;;;5091504;28;20218;-53
2022/05/08 04:58:58;;;;;;;12.93;4.43;;;;;;;;;;5091703;28;20260;-52
2022/05/08 05:01:25;;;;;;;11.30;4.00;;;;;;;;;;5091573;28;20195;-52
2022/05/08 05:03:55;;;;;;;13.10;4.37;;;;;;;;;;5091590;28;20552;-51
2022/05/08 05:06:21;;;;;;;11.20;4.10;;;;;;;;;;5091512;28;20232;-51
2022/05/08 05:08:47;;;;;;;14.57;4.10;;;;;;;;;;5091605;28;20207;-52
2022/05/08 05:11:13;;;;;;;13.33;3.83;;;;;;;;;;5091611;28;20283;-53
2022/05/08 05:13:40;;;;;;;17.70;3.83;;;;;;;;;;5094836;28;20571;-54
2022/05/08 05:16:06;;;;;;;13.03;4.40;;;;;;;;;;5095072;28;20238;-54
2022/05/08 05:18:32;;;;;;;9.10;3.30;;;;;;;;;;5095129;28;20199;-53
2022/05/08 05:20:59;;;;;;;9.47;3.50;;;;;;;;;;5095360;28;20199;-52
2022/05/08 05:23:25;;;;;;;11.40;4.30;;;;;;;;;;5094730;28;20206;-52
2022/05/08 05:25:52;;;;;;;15.33;3.97;;;;;;;;;;5095024;28;20369;-54
2022/05/08 05:28:18;;;;;;;13.00;4.23;;;;;;;;;;5094835;28;20202;-54
2022/05/08 05:30:44;;;;;;;15.30;3.73;;;;;;;;;;5094933;28;20235;-53
2022/05/08 05:33:15;;;;;;;16.17;3.83;;;;;;;;;;5094976;28;20245;-53
2022/05/08 05:35:41;;;;;;;11.43;4.07;;;;;;;;;;5094730;28;20742;-53
2022/05/08 05:38:09;;;;;;;12.37;3.90;;;;;;;;;;5094863;28;20224;-53
2022/05/08 05:40:35;;;;;;;13.97;4.03;;;;;;;;;;5094687;28;20220;-52
2022/05/08 05:43:01;;;;;;;13.03;4.30;;;;;;;;;;5094505;28;20270;-53
2022/05/08 05:45:27;;;;;;;9.90;3.00;;;;;;;;;;5094587;28;20229;-53
2022/05/08 05:47:53;;;;;;;12.83;3.93;;;;;;;;;;5094567;28;20229;-52
2022/05/08 05:50:19;;;;;;;9.20;3.50;;;;;;;;;;5094724;28;20199;-53
2022/05/08 05:52:46;;;;;;;9.53;3.23;;;;;;;;;;5094321;28;20677;-52
2022/05/08 05:55:13;;;;;;;10.57;3.53;;;;;;;;;;5094555;28;20191;-54
2022/05/08 05:57:39;;;;;;;11.47;3.70;;;;;;;;;;5094551;28;20207;-54
2022/05/08 06:00:06;;;;;;;10.77;3.93;;;;;;;;;;5094216;28;20237;-53
2022/05/08 06:02:32;;;;;;;12.13;3.73;;;;;;;;;;5094108;28;20194;-53
2022/05/08 06:04:58;;;;;;;12.10;3.53;;;;;;;;;;5094311;28;20199;-54
2022/05/08 06:07:24;;;;;;;12.17;3.80;;;;;;;;;;5094111;28;20198;-54
2022/05/08 06:09:50;;;;;;;8.17;2.70;;;;;;;;;;5094160;28;20198;-54
2022/05/08 06:12:18;;;;;;;10.07;3.30;;;;;;;;;;5093649;28;20660;-52
2022/05/08 06:14:46;;;;;;;9.50;2.80;;;;;;;;;;5094025;28;20214;-53
2022/05/08 06:17:12;;;;;;;10.40;3.00;;;;;;;;;;5093804;28;20257;-54
2022/05/08 06:19:38;;;;;;;12.30;2.83;;;;;;;;;;5093858;28;20843;-54
2022/05/08 06:22:04;;;;;;;7.53;3.13;;;;;;;;;;5093543;28;20256;-55
2022/05/08 06:24:30;;;;;;;10.63;3.23;;;;;;;;;;5093506;28;20719;-54
2022/05/08 06:26:56;;;;;;;7.93;2.87;;;;;;;;;;5093651;28;20195;-54
2022/05/08 06:29:24;;;;;;;9.80;2.67;;;;;;;;;;5093903;28;20232;-53
2022/05/08 06:31:51;;;;;;;9.80;3.10;;;;;;;;;;5093892;28;20250;-54
2022/05/08 06:34:17;;;;;;;7.57;2.27;;;;;;;;;;5093908;28;20210;-55
2022/05/08 06:36:44;;;;;;;9.73;2.90;;;;;;;;;;5093728;28;20203;-54
2022/05/08 06:39:10;;;;;;;9.97;2.60;;;;;;;;;;5093597;28;20206;-53
2022/05/08 06:41:39;;;;;;;10.67;2.60;;;;;;;;;;5093503;28;20187;-55
2022/05/08 06:44:05;;;;;;;8.77;2.57;;;;;;;;;;5093623;28;20587;-55
2022/05/08 06:46:35;;;;;;;10.37;2.70;;;;;;;;;;5092973;28;20245;-55
2022/05/08 06:49:01;;;;;;;10.30;3.10;;;;;;;;;;5093341;28;20211;-55
2022/05/08 06:51:27;;;;;;;5.93;2.47;;;;;;;;;;5093355;28;20215;-55
2022/05/08 06:53:53;;;;;;;8.83;2.93;;;;;;;;;;5093334;28;20570;-55
2022/05/08 06:56:19;;;;;;;11.27;3.27;;;;;;;;;;5093091;28;20203;-55
2022/05/08 07:01:38;;;;;;;9.00;2.83;;;;;;;;;;5092994;28;20225;-55
2022/05/08 07:04:07;;;;;;;8.30;2.40;;;;;;;;;;5093518;28;20206;-55
2022/05/08 07:06:33;;;;;;;8.73;2.63;;;;;;;;;;5093167;28;20206;-54
2022/05/08 07:09:01;;;;;;;11.37;3.03;;;;;;;;;;5093294;28;20211;-54
2022/05/08 07:11:27;;;;;;;7.53;2.70;;;;;;;;;;5093005;28;20233;-56
2022/05/08 07:13:53;;;;;;;9.07;2.43;;;;;;;;;;5093241;28;20198;-58
2022/05/08 07:16:19;;;;;;;10.63;2.80;;;;;;;;;;5092739;28;20716;-55
2022/05/08 07:18:45;;;;;;;6.57;2.20;;;;;;;;;;5092881;28;20199;-55
2022/05/08 07:21:13;;;;;;;6.40;2.20;;;;;;;;;;5093144;28;20194;-53
2022/05/08 07:23:39;;;;;;;7.47;2.40;;;;;;;;;;5092862;28;20649;-53
2022/05/08 07:26:06;;;;;;;7.53;2.77;;;;;;;;;;5092437;28;20199;-54
2022/05/08 07:28:32;;;;;;;9.30;2.50;;;;;;;;;;5091668;28;20198;-54
2022/05/08 07:30:58;;;;;;;9.77;2.53;;;;;;;;;;5092520;28;20563;-55
2022/05/08 07:33:24;;;;;;;7.40;2.87;;;;;;;;;;5092324;28;20275;-55
2022/05/08 07:38:35;;;;;;;12.10;2.93;;;;;;;;;;5091941;28;20232;-55
2022/05/08 07:41:02;;;;;;;5.60;2.63;;;;;;;;;;5092311;28;20608;-54
2022/05/08 07:43:28;;;;;;;7.33;2.33;;;;;;;;;;5092568;28;20532;-55
2022/05/08 07:45:54;;;;;;;10.97;3.10;;;;;;;;;;5092480;28;20199;-53
2022/05/08 07:48:20;;;;;;;7.10;2.60;;;;;;;;;;5092115;28;20203;-54
2022/05/08 07:50:46;;;;;;;7.63;2.30;;;;;;;;;;5091936;28;20223;-53
2022/05/08 07:53:12;;;;;;;10.63;2.40;;;;;;;;;;5092409;28;20227;-55
2022/05/08 07:55:40;;;;;;;10.33;3.17;;;;;;;;;;5092173;28;20221;-55
2022/05/08 07:58:06;;;;;;;10.50;2.60;;;;;;;;;;5092128;28;20262;-54
2022/05/08 08:00:32;;;;;;;9.20;2.83;;;;;;;;;;5091960;28;20205;-55
2022/05/08 08:02:58;;;;;;;7.40;2.10;;;;;;;;;;5092248;28;20195;-55
2022/05/08 08:05:24;;;;;;;8.80;2.33;;;;;;;;;;5092077;28;20207;-53
2022/05/08 08:07:50;;;;;;;9.07;2.67;;;;;;;;;;5090686;28;20195;-54
2022/05/08 08:10:17;;;;;;;12.17;8.07;;;;;;;;;;5091592;28;20191;-54
2022/05/08 08:12:44;;;;;;;9.80;2.87;;;;;;;;;;5091777;28;20689;-54
2022/05/08 08:15:10;;;;;;;5.43;2.53;;;;;;;;;;5091934;28;20203;-55
2022/05/08 08:17:36;;;;;;;7.00;2.60;;;;;;;;;;5091981;28;20221;-54
2022/05/08 08:20:03;;;;;;;6.67;2.20;;;;;;;;;;5092264;28;20321;-54
2022/05/08 08:22:29;;;;;;;8.97;2.50;;;;;;;;;;5091483;28;20274;-55
2022/05/08 08:24:55;;;;;;;7.07;2.30;;;;;;;;;;5091705;28;20247;-58
2022/05/08 08:27:21;;;;;;;7.57;2.70;;;;;;;;;;5091728;28;20222;-54
2022/05/08 08:29:48;;;;;;;11.17;2.57;;;;;;;;;;5091898;28;20203;-54
2022/05/08 08:32:14;;;;;;;4.93;2.50;;;;;;;;;;5091808;28;20662;-54
2022/05/08 08:34:40;;;;;;;8.07;3.10;;;;;;;;;;5091769;28;20256;-53
2022/05/08 08:37:06;;;;;;;9.13;2.57;;;;;;;;;;5091846;28;20608;-54
2022/05/08 08:39:32;;;;;;;6.73;2.63;;;;;;;;;;5091063;28;20220;-54
2022/05/08 08:42:01;;;;;;;13.10;7.27;;;;;;;;;;5091733;28;20231;-54
2022/05/08 08:50:03;;;;;;;9.13;2.60;;;;;;;;;;5095796;28;20252;-55
2022/05/08 08:52:29;;;;;;;9.63;2.40;;;;;;;;;;5095491;28;20232;-55
2022/05/08 08:54:55;;;;;;;10.33;2.60;;;;;;;;;;5095812;28;20281;-53
2022/05/08 08:57:21;;;;;;;10.13;2.80;;;;;;;;;;5095313;28;20225;-54
2022/05/08 08:59:47;;;;;;;6.90;2.50;;;;;;;;;;5095653;28;20338;-55
2022/05/08 09:02:16;;;;;;;6.17;2.73;;;;;;;;;;5095596;28;20717;-55
2022/05/08 09:04:42;;;;;;;8.07;2.50;;;;;;;;;;5095399;28;20197;-55
2022/05/08 09:07:35;;;;;;;9.00;2.37;;;;;;;;;;5095656;28;20354;-54
2022/05/08 09:10:08;;;;;;;10.77;2.43;;;;;;;;;;5095505;28;20208;-54
2022/05/08 09:12:34;;;;;;;6.30;2.40;;;;;;;;;;5094796;28;20229;-54
2022/05/08 09:15:00;;;;;;;10.43;5.90;;;;;;;;;;5095270;28;20202;-55
2022/05/08 09:17:43;;;;;;;11.50;3.10;;;;;;;;;;5095170;28;20350;-53
2022/05/08 09:20:24;;;;;;;9.03;2.50;;;;;;;;;;5095122;28;20199;-53
2022/05/08 09:22:59;;;;;;;5.47;2.40;;;;;;;;;;5095013;28;20275;-54
2022/05/08 09:25:43;;;;;;;7.43;2.57;;;;;;;;;;5094910;28;20234;-54
2022/05/08 09:28:09;;;;;;;4.40;2.37;;;;;;;;;;5094997;28;20202;-54
2022/05/08 09:30:35;;;;;;;7.60;2.63;;;;;;;;;;5094725;28;20226;-54
2022/05/08 09:33:02;;;;;;;10.67;2.70;;;;;;;;;;5094857;28;20230;-54
2022/05/08 09:35:43;;;;;;;8.20;2.67;;;;;;;;;;5094906;28;20585;-55
2022/05/08 09:38:09;;;;;;;7.07;2.10;;;;;;;;;;5095192;28;20217;-55
2022/05/08 09:40:35;;;;;;;7.17;2.53;;;;;;;;;;5094801;28;20198;-55
2022/05/08 09:43:01;;;;;;;15.90;11.50;;;;;;;;;;5095074;28;20675;-55
2022/05/08 09:45:27;;;;;;;7.77;3.07;;;;;;;;;;5094880;28;20205;-55
2022/05/08 09:47:53;;;;;;;7.87;2.30;;;;;;;;;;5094646;28;20662;-55
2022/05/08 09:50:20;;;;;;;8.93;2.73;;;;;;;;;;5094690;28;20199;-55
2022/05/08 09:52:46;;;;;;;10.10;2.60;;;;;;;;;;5094484;28;20234;-55
2022/05/08 09:55:13;;;;;;;9.93;2.73;;;;;;;;;;5094681;28;20210;-54
2022/05/08 09:57:39;;;;;;;7.33;2.63;;;;;;;;;;5093438;28;20665;-54
2022/05/08 10:00:06;;;;;;;5.17;2.20;;;;;;;;;;5094632;28;20199;-55
2022/05/08 10:02:32;;;;;;;7.33;2.60;;;;;;;;;;5094084;28;20203;-55
2022/05/08 10:04:58;;;;;;;7.73;2.47;;;;;;;;;;5094323;28;20664;-56
2022/05/08 10:07:26;;;;;;;8.50;2.57;;;;;;;;;;5093956;28;20199;-55
2022/05/08 10:15:34;;;;;;;8.07;4.40;;;;;;;;;;5093918;28;20198;-55
2022/05/08 10:18:15;;;;;;;6.67;2.43;;;;;;;;;;5094111;28;20201;-56
2022/05/08 10:20:59;;;;;;;8.53;2.30;;;;;;;;;;5093583;28;20203;-56
2022/05/08 10:23:40;;;;;;;6.07;2.30;;;;;;;;;;5094336;28;20224;-56
2022/05/08 10:26:24;;;;;;;5.17;2.20;;;;;;;;;;5094012;28;20214;-56
2022/05/08 10:29:08;;;;;;;5.40;2.13;;;;;;;;;;5093907;28;20187;-55
2022/05/08 10:31:43;;;;;;;4.47;2.17;;;;;;;;;;5093571;28;20198;-56
2022/05/08 10:34:09;;;;;;;8.10;2.50;;;;;;;;;;5093804;28;20562;-56
2022/05/08 10:36:35;;;;;;;9.03;2.50;;;;;;;;;;5093517;28;20364;-56
2022/05/08 10:39:16;;;;;;;7.33;2.40;;;;;;;;;;5093779;28;20242;-56
2022/05/08 10:41:47;;;;;;;3.80;1.83;;;;;;;;;;5093524;28;20191;-55
2022/05/08 10:44:31;;;;;;;8.20;2.60;;;;;;;;;;5093980;28;20261;-55
2022/05/08 10:47:12;;;;;;;8.53;2.80;;;;;;;;;;5093675;28;20203;-56
2022/05/08 10:49:38;;;;;;;6.60;2.20;;;;;;;;;;5093322;28;20722;-55
2022/05/08 10:52:08;;;;;;;7.77;2.47;;;;;;;;;;5093707;28;20233;-55
2022/05/08 10:54:34;;;;;;;6.50;2.27;;;;;;;;;;5093656;28;20223;-55
2022/05/08 10:57:01;;;;;;;5.50;2.47;;;;;;;;;;5093690;28;20286;-55
2022/05/08 10:59:42;;;;;;;4.37;2.10;;;;;;;;;;5093653;28;20198;-55
2022/05/08 11:02:08;;;;;;;9.03;2.67;;;;;;;;;;5093404;28;20195;-55
2022/05/08 11:04:34;;;;;;;7.17;3.73;;;;;;;;;;5093318;28;20212;-55
2022/05/08 11:07:02;;;;;;;5.47;2.43;;;;;;;;;;5093474;28;20239;-55
2022/05/08 11:09:28;;;;;;;6.97;2.40;;;;;;;;;;5092168;28;20683;-56
2022/05/08 11:11:54;;;;;;;4.47;2.43;;;;;;;;;;5093106;28;20255;-55
2022/05/08 11:14:24;;;;;;;7.03;2.30;;;;;;;;;;5093417;28;20189;-55
2022/05/08 11:16:51;;;;;;;5.03;2.23;;;;;;;;;;5092950;28;20240;-55
2022/05/08 11:19:17;;;;;;;7.90;2.37;;;;;;;;;;5093233;28;20228;-56
2022/05/08 11:21:43;;;;;;;6.33;2.57;;;;;;;;;;5092894;28;20202;-55
2022/05/08 11:24:22;;;;;;;7.90;2.53;;;;;;;;;;5092821;28;20217;-55
2022/05/08 11:26:48;;;;;;;10.97;2.73;;;;;;;;;;5092763;28;20198;-55
2022/05/08 11:29:15;;;;;;;4.57;1.97;;;;;;;;;;5093147;28;20228;-57
2022/05/08 11:36:04;;;;;;;8.20;2.40;;;;;;;;;;5092611;28;20280;-55
2022/05/08 11:37:19;;;;;;;11.27;2.73;;;;;;;;;;5092272;28;20255;-56
2022/05/08 11:39:45;;;;;;;6.87;2.90;;;;;;;;;;5092344;28;20262;-55
2022/05/08 11:42:11;;;;;;;6.33;2.43;;;;;;;;;;5092645;28;20583;-55
2022/05/08 11:44:37;;;;;;;5.93;2.33;;;;;;;;;;5092565;28;20275;-55
2022/05/08 11:47:10;;;;;;;7.93;2.43;;;;;;;;;;5092629;28;20230;-55
2022/05/08 11:49:40;;;;;;;9.03;3.60;;;;;;;;;;5092456;28;20202;-56
2022/05/08 11:52:18;;;;;;;6.97;1.97;;;;;;;;;;5092389;28;20274;-60
2022/05/08 11:54:58;;;;;;;5.97;2.23;;;;;;;;;;5092534;28;20264;-56
2022/05/08 11:57:24;;;;;;;5.40;2.03;;;;;;;;;;5092404;28;20212;-55
2022/05/08 11:59:51;;;;;;;5.30;2.30;;;;;;;;;;5092359;28;20190;-58
2022/05/08 12:02:19;;;;;;;7.33;2.63;;;;;;;;;;5092378;28;20193;-55
2022/05/08 12:04:55;;;;;;;6.73;2.63;;;;;;;;;;5092129;28;20342;-55
2022/05/08 12:07:21;;;;;;;9.53;2.40;;;;;;;;;;5092310;28;20247;-55
2022/05/08 12:09:52;;;;;;;6.27;2.30;;;;;;;;;;5092167;28;20201;-55
2022/05/08 12:12:23;;;;;;;10.50;2.40;;;;;;;;;;5090095;28;20224;-55
2022/05/08 12:14:49;;;;;;;6.37;2.70;;;;;;;;;;5092300;28;20216;-55
2022/05/08 12:17:16;;;;;;;4.87;2.50;;;;;;;;;;5092195;28;20241;-55
2022/05/08 12:19:50;;;;;;;6.83;2.50;;;;;;;;;;5092254;28;20205;-56
2022/05/08 12:22:17;;;;;;;7.50;2.57;;;;;;;;;;5091815;28;20211;-55
2022/05/08 12:24:43;;;;;;;5.70;2.30;;;;;;;;;;5092099;28;20282;-56
2022/05/08 12:27:09;;;;;;;6.67;2.57;;;;;;;;;;5090230;28;20198;-57
2022/05/08 12:29:36;;;;;;;7.57;2.50;;;;;;;;;;5091357;28;20793;-55
2022/05/08 12:32:02;;;;;;;8.87;2.50;;;;;;;;;;5090202;28;20785;-56
2022/05/08 12:34:29;;;;;;;8.03;2.70;;;;;;;;;;5091937;28;20201;-54
2022/05/08 12:36:56;;;;;;;4.93;2.30;;;;;;;;;;5092063;28;20202;-54
2022/05/08 12:39:22;;;;;;;8.20;2.30;;;;;;;;;;5092015;28;20210;-55
2022/05/08 12:41:48;;;;;;;6.83;2.37;;;;;;;;;;5091786;28;20217;-56
2022/05/08 12:44:14;;;;;;;6.87;2.70;;;;;;;;;;5092121;28;20229;-54
2022/05/08 12:46:40;;;;;;;5.70;2.50;;;;;;;;;;5091906;28;20247;-56
2022/05/08 12:49:08;;;;;;;5.77;2.23;;;;;;;;;;5092083;28;20204;-56
2022/05/08 12:51:35;;;;;;;8.57;2.30;;;;;;;;;;5091659;28;20205;-56
2022/05/08 12:54:03;;;;;;;7.33;2.30;;;;;;;;;;5091976;28;20214;-56
2022/05/08 12:56:30;;;;;;;5.90;2.53;;;;;;;;;;5090629;28;20843;-56
2022/05/08 13:01:40;;;;;;;4.83;2.37;;;;;;;;;;5091773;28;20193;-54
2022/05/08 13:04:06;;;;;;;8.23;2.47;;;;;;;;;;5091857;28;20195;-54
2022/05/08 13:06:33;;;;;;;7.33;2.13;;;;;;;;;;5091840;28;20226;-57
2022/05/08 13:08:59;;;;;;;7.50;2.87;;;;;;;;;;5092035;28;20270;-55
2022/05/08 13:11:26;;;;;;;8.03;2.37;;;;;;;;;;5087357;28;20195;-56
2022/05/08 13:13:52;;;;;;;5.87;2.80;;;;;;;;;;5090747;28;20225;-55
2022/05/08 13:16:18;;;;;;;6.13;2.57;;;;;;;;;;5091524;28;20238;-54
2022/05/08 13:18:44;;;;;;;7.27;2.63;;;;;;;;;;5091357;28;20194;-54
2022/05/08 13:21:11;;;;;;;6.30;2.57;;;;;;;;;;5091666;28;20213;-54
2022/05/08 13:23:37;;;;;;;6.97;2.60;;;;;;;;;;5091170;28;20204;-54
2022/05/08 13:26:03;;;;;;;6.70;2.20;;;;;;;;;;5091234;28;20217;-53
2022/05/08 13:28:32;;;;;;;10.70;2.97;;;;;;;;;;5091015;28;20205;-54
2022/05/08 13:30:59;;;;;;;9.07;2.70;;;;;;;;;;5090976;28;20210;-55
2022/05/08 13:33:25;;;;;;;7.93;2.37;;;;;;;;;;5092469;28;20225;-56
2022/05/08 13:35:51;;;;;;;7.17;2.73;;;;;;;;;;5095124;28;20221;-56
2022/05/08 13:38:18;;;;;;;8.63;2.80;;;;;;;;;;5082686;28;20770;-56
2022/05/08 13:40:44;;;;;;;9.87;3.23;;;;;;;;;;5094454;28;20233;-56
2022/05/08 13:43:11;;;;;;;4.73;2.20;;;;;;;;;;5092595;28;20247;-55
2022/05/08 13:45:38;;;;;;;7.63;2.90;;;;;;;;;;5094804;28;20566;-56
2022/05/08 13:48:05;;;;;;;9.77;5.73;;;;;;;;;;5094995;28;20232;-55
2022/05/08 13:50:31;;;;;;;6.33;2.37;;;;;;;;;;5094965;28;20284;-56
2022/05/08 13:52:57;;;;;;;5.73;2.30;;;;;;;;;;5094766;28;20313;-57
2022/05/08 13:55:23;;;;;;;9.03;2.60;;;;;;;;;;5094599;28;20206;-56
2022/05/08 13:57:53;;;;;;;8.30;2.30;;;;;;;;;;5094554;28;20251;-56
2022/05/08 14:00:20;;;;;;;5.30;2.30;;;;;;;;;;5094531;28;20197;-56
2022/05/08 14:02:51;;;;;;;6.60;2.70;;;;;;;;;;5094471;28;20679;-54
2022/05/08 14:05:17;;;;;;;6.37;2.50;;;;;;;;;;5094645;28;20273;-55
2022/05/08 14:07:43;;;;;;;11.83;2.97;;;;;;;;;;5094524;28;20205;-55
2022/05/08 14:10:10;;;;;;;6.93;2.93;;;;;;;;;;5094432;28;20197;-55
2022/05/08 14:12:37;;;;;;;8.67;3.00;;;;;;;;;;5094228;28;20242;-55
2022/05/08 14:15:03;;;;;;;7.60;2.67;;;;;;;;;;5094329;28;20204;-55
2022/05/08 14:17:30;;;;;;;9.63;3.83;;;;;;;;;;5090348;28;20240;-55
2022/05/08 14:19:58;;;;;;;8.23;2.70;;;;;;;;;;5094006;28;20200;-55
2022/05/08 14:22:25;;;;;;;7.60;2.80;;;;;;;;;;5094219;28;20566;-54
2022/05/08 14:24:51;;;;;;;7.50;3.20;;;;;;;;;;5093892;28;20221;-54
2022/05/08 14:27:17;;;;;;;5.43;2.63;;;;;;;;;;5094166;28;20204;-55
2022/05/08 14:29:43;;;;;;;5.23;2.60;;;;;;;;;;5093959;28;20200;-56
2022/05/08 14:37:40;;;;;;;7.33;2.43;;;;;;;;;;5093848;28;20193;-54
2022/05/08 14:40:08;;;;;;;7.00;2.90;;;;;;;;;;5093837;28;20227;-54
2022/05/08 14:42:34;;;;;;;7.27;3.00;;;;;;;;;;5093677;28;20194;-55
2022/05/08 14:45:01;;;;;;;8.20;6.73;;;;;;;;;;5093731;28;20203;-55
2022/05/08 14:47:29;;;;;;;6.43;2.60;;;;;;;;;;5093746;28;20205;-55
2022/05/08 14:49:55;;;;;;;7.63;2.17;;;;;;;;;;5093357;28;20200;-54
2022/05/08 14:52:21;;;;;;;5.70;2.33;;;;;;;;;;5093629;28;20233;-54
2022/05/08 14:54:48;;;;;;;8.30;2.57;;;;;;;;;;5093563;28;20204;-54
2022/05/08 14:57:15;;;;;;;9.10;2.70;;;;;;;;;;5093619;28;20193;-54
2022/05/08 14:59:41;;;;;;;6.50;2.47;;;;;;;;;;5093403;28;20686;-54
2022/05/08 15:02:07;;;;;;;11.80;6.07;;;;;;;;;;5093475;28;20193;-55
2022/05/08 15:04:33;;;;;;;5.30;2.87;;;;;;;;;;5093316;28;20607;-54
2022/05/08 15:06:59;;;;;;;10.43;2.63;;;;;;;;;;5093080;28;20229;-55
2022/05/08 15:09:27;;;;;;;8.57;2.33;;;;;;;;;;5093172;28;20632;-55
2022/05/08 15:11:54;;;;;;;5.70;2.10;;;;;;;;;;5093045;28;20212;-54
2022/05/08 15:14:21;;;;;;;7.73;2.73;;;;;;;;;;5093097;28;20205;-55
2022/05/08 15:16:49;;;;;;;6.83;2.47;;;;;;;;;;5092717;28;20244;-54